Tullahoma, TN

7:26 AM CST en Febrero 20, 2017 (GMT -0600)
Tullahoma TN - Wilson Avenue | | Change Station
Aviso en curso: Special Statement

Alt 1070 ft 35.36 °N, 86.24 °W | Updated 13 seconds ago

Clear
Despejado
44.8 ° F
Sensación térmica 45 ° F
N
0.0
Viento Variable Viento desde NE
Gusts 0.0 mph

Hoy
Alta -- | Baja -- ° F
--% Posibilidad de precipitaciones
Ayer
Alta -- | Baja -- ° F
Precip. -- pul
Presión 30.19 pul
Visibilidad 10.0 Millas
Nubes Despejado
Vientos helados 45 ° F
Punto de rocío 45 ° F
Humedad 99%
Precipitaciones 0.00 pul
Espesor de la nieve No disponible.
6:25 AM 5:32 PM
Creciente menguante, 34% visible
METAR KTHA 201315Z AUTO 00000KT 10SM CLR 08/07 A3019 RMK
Presión 30.19 pul
Visibilidad 10.0 Millas
Nubes Despejado
Vientos helados 45 ° F
Punto de rocío 45 ° F
Humedad 99%
Precipitaciones 0.00 pul
Espesor de la nieve No disponible.
6:25 AM 5:32 PM
Creciente menguante, 34% visible
METAR KTHA 201315Z AUTO 00000KT 10SM CLR 08/07 A3019 RMK

Get Your Daily Forecast Email!

Thanks for signing up!

Be on the lookout for a verification email in your inbox.

You'll start receiving the daily forecast at 8 AM.

×

10-Day Weather Forecast

Almanac

Astronomía

Feb. 20, 2017 Salida Puesta
Hora real
Crepúsculo civil
Crepúsculo náutico
Crepúsculo astronómico
Luna
Horas de luz
Horas de luz
Tomorrow will be .
, % of the Moon is Illuminated

Extremos de hoy

Máximos del estado Bajos del estado

Community

WunderPhotos

Upload Photos

1,962,540 ¡fotos cargadas!

WunderBlog® & News

Nearby

Calidad del aire

  Calidad del aire Índice AQ Contaminante
Not available.

Grosos de nieve

Estación Profundido Altura

Actividad de terremotos

Ciudad Distance Mag. Tiempo y dato
Magnitud mínima muestra es 2,5.

Temperaturas de aguas costeras

Lugar Temperatura

Stations

Estaciones meteorológicas cercanas

Ubicación de la estación Temp. Vientos helados Punto de rocío Humedad Viento Precip. Alt Actualizado Tipo
                   

Watches & Warnings

Special Statement
Issued: 9:26 PM CST Feb. 19, 2017 – National Weather Service

Locally dense fog is expected in middle Tennessee late tonight and
early Monday morning.

When driving through foggy areas... slow down, use low beam
headlights, and leave enough braking distance between you and the
vehicle in front of you.

The foggy conditions should improve by mid-morning Monday.

19